Pecan, Mississippi
Current Conditions -  °F | °C
As of 9:53 AM on Sunday 23 Nov 2014 (Local Time) from KPQL Reporting Station
Overcast Overcast  
Wind Chill: 65°   Ceiling: 6000
Heat Index: 65°   Visibility: 10mi
Dew Point: 62°   Wind: 8mph
Humidity: 90%   Direction: 210°SSW
Pressure: 29.74"   Gusts: 18mph
Location:  30.3649°N, 88.5432°W
Report Text: KPQL 231553Z AUTO 21007G16KT 10SM OVC060 18/17 A2974 RMK AO2 RAB1455E07 SLP073 P0000 T01830167 TSNO $
Loading
Personal Weather Stations






























Interactive Weather Map New forecast layout! Learn more

10-Day Weather Forecast

Advertisements
Track Severe Weather on mobile